Time;durP1;ratioP1;P1;durP2;ratioP2;P2;SDS_P1;SDS_P2;PMS_P1;PMS_P2;Temp;Humidity;BMP_temperature;BMP_pressure;BME280_temperature;BME280_humidity;BME280_pressure;Samples;Min_cycle;Max_cycle;Signal;HPM_P1;HPM_P2
2021/10/21 00:01:55;;;;;;;9.80;4.38;;;;;;;;;;5083094;28;20039;-81
2021/10/21 00:04:20;;;;;;;7.50;4.20;;;;;;;;;;5087871;28;20113;-81
2021/10/21 00:06:46;;;;;;;9.88;3.90;;;;;;;;;;5072418;28;20044;-79
2021/10/21 00:09:11;;;;;;;7.10;3.67;;;;;;;;;;5079945;28;20049;-82
2021/10/21 00:11:39;;;;;;;6.18;3.55;;;;;;;;;;5090312;28;20024;-79
2021/10/21 00:14:05;;;;;;;6.78;3.55;;;;;;;;;;5083810;28;20033;-82
2021/10/21 00:16:31;;;;;;;7.70;3.50;;;;;;;;;;5095232;28;20054;-82
2021/10/21 00:18:56;;;;;;;5.50;3.28;;;;;;;;;;5075180;28;20070;-81
2021/10/21 00:21:22;;;;;;;5.28;2.88;;;;;;;;;;5093350;28;20076;-79
2021/10/21 00:23:48;;;;;;;4.70;2.67;;;;;;;;;;5073376;28;20032;-82
2021/10/21 00:26:13;;;;;;;8.07;2.90;;;;;;;;;;5079807;28;20119;-80
2021/10/21 00:28:39;;;;;;;6.55;2.70;;;;;;;;;;5076732;28;20033;-82
2021/10/21 00:31:05;;;;;;;6.05;2.70;;;;;;;;;;5088047;28;20027;-80
2021/10/21 00:33:30;;;;;;;4.88;2.50;;;;;;;;;;5086228;28;20059;-80
2021/10/21 00:35:56;;;;;;;16.55;3.00;;;;;;;;;;5090087;28;20040;-81
2021/10/21 00:38:22;;;;;;;9.15;3.00;;;;;;;;;;5092267;28;20072;-80
2021/10/21 00:40:47;;;;;;;5.72;3.05;;;;;;;;;;5076835;28;20060;-79
2021/10/21 00:43:13;;;;;;;6.30;3.20;;;;;;;;;;5088583;28;20028;-81
2021/10/21 00:45:38;;;;;;;4.70;3.05;;;;;;;;;;5088917;28;20023;-79
2021/10/21 00:48:05;;;;;;;5.43;3.42;;;;;;;;;;5077176;28;20039;-81
2021/10/21 00:50:31;;;;;;;7.45;3.33;;;;;;;;;;5084809;28;20032;-80
2021/10/21 00:52:58;;;;;;;5.05;2.60;;;;;;;;;;5093071;28;20065;-82
2021/10/21 00:55:23;;;;;;;6.20;3.10;;;;;;;;;;5078794;28;20050;-81
2021/10/21 00:57:49;;;;;;;3.88;2.15;;;;;;;;;;5091956;28;20104;-82
2021/10/21 01:00:15;;;;;;;6.70;2.78;;;;;;;;;;5065832;28;20044;-82
2021/10/21 01:02:40;;;;;;;4.60;2.10;;;;;;;;;;5079236;28;20032;-79
2021/10/21 01:05:06;;;;;;;5.53;1.90;;;;;;;;;;5072494;28;20028;-80
2021/10/21 01:07:33;;;;;;;3.47;1.75;;;;;;;;;;5094329;28;20047;-81
2021/10/21 01:09:59;;;;;;;4.43;1.65;;;;;;;;;;5061651;28;20567;-82
2021/10/21 01:12:25;;;;;;;4.18;1.70;;;;;;;;;;5074710;28;20498;-80
2021/10/21 01:14:51;;;;;;;2.83;1.27;;;;;;;;;;5093308;28;20036;-82
2021/10/21 01:17:17;;;;;;;4.97;2.03;;;;;;;;;;5056675;28;20025;-80
2021/10/21 01:19:43;;;;;;;2.63;1.15;;;;;;;;;;5071103;28;20036;-82
2021/10/21 01:22:08;;;;;;;3.33;1.30;;;;;;;;;;5091424;28;20028;-80
2021/10/21 01:24:34;;;;;;;6.30;1.38;;;;;;;;;;5091820;28;20625;-81
2021/10/21 01:26:59;;;;;;;4.43;0.90;;;;;;;;;;5088883;28;20020;-82
2021/10/21 01:29:25;;;;;;;2.90;0.75;;;;;;;;;;5072589;28;20032;-82
2021/10/21 01:31:53;;;;;;;3.28;0.75;;;;;;;;;;5089974;28;20045;-82
2021/10/21 01:34:20;;;;;;;1.55;0.65;;;;;;;;;;5081534;28;20043;-82
2021/10/21 01:36:51;;;;;;;4.10;0.68;;;;;;;;;;5077062;28;20036;-82
2021/10/21 01:39:17;;;;;;;4.63;0.77;;;;;;;;;;5097860;28;20028;-82
2021/10/21 01:41:42;;;;;;;2.80;0.70;;;;;;;;;;5071099;28;20051;-81
2021/10/21 01:44:07;;;;;;;5.47;0.98;;;;;;;;;;5083924;28;20096;-81
2021/10/21 01:46:33;;;;;;;4.97;0.60;;;;;;;;;;5086340;28;20036;-80
2021/10/21 01:48:59;;;;;;;2.90;0.75;;;;;;;;;;5091964;28;20036;-82
2021/10/21 01:51:24;;;;;;;2.42;0.63;;;;;;;;;;5068041;28;20032;-81
2021/10/21 01:53:49;;;;;;;4.82;0.80;;;;;;;;;;5090213;28;20059;-79
2021/10/21 01:56:15;;;;;;;3.13;0.70;;;;;;;;;;5071824;28;20441;-81
2021/10/21 01:58:41;;;;;;;3.03;0.88;;;;;;;;;;5087464;28;20488;-80
2021/10/21 02:01:06;;;;;;;2.25;0.70;;;;;;;;;;5081483;28;20085;-80
2021/10/21 02:03:32;;;;;;;4.35;0.82;;;;;;;;;;5102121;28;20047;-80
2021/10/21 02:05:57;;;;;;;3.60;0.82;;;;;;;;;;5080678;28;20044;-81
2021/10/21 02:08:23;;;;;;;1.80;0.60;;;;;;;;;;5081768;28;20553;-82
2021/10/21 02:10:48;;;;;;;5.10;0.60;;;;;;;;;;5079424;28;20067;-81
2021/10/21 02:13:14;;;;;;;4.85;0.63;;;;;;;;;;5093275;28;20094;-82
2021/10/21 02:15:40;;;;;;;3.13;0.50;;;;;;;;;;5081969;28;20059;-81
2021/10/21 02:18:05;;;;;;;1.67;0.47;;;;;;;;;;5094730;28;20059;-80
2021/10/21 02:20:31;;;;;;;6.10;0.90;;;;;;;;;;5089079;28;20056;-79
2021/10/21 02:22:57;;;;;;;3.33;0.60;;;;;;;;;;5080342;28;20028;-79
2021/10/21 02:25:23;;;;;;;3.30;0.70;;;;;;;;;;5097662;28;20024;-79
2021/10/21 02:27:49;;;;;;;5.10;0.70;;;;;;;;;;5076706;28;20031;-80
2021/10/21 02:30:16;;;;;;;3.22;0.60;;;;;;;;;;5088373;28;20033;-80
2021/10/21 02:32:43;;;;;;;3.45;0.55;;;;;;;;;;5076215;28;20036;-81
2021/10/21 02:35:10;;;;;;;3.22;0.47;;;;;;;;;;5093485;28;20089;-82
2021/10/21 02:37:35;;;;;;;3.60;0.60;;;;;;;;;;5094161;28;20028;-81
2021/10/21 02:40:03;;;;;;;3.45;0.85;;;;;;;;;;5081688;28;20523;-81
2021/10/21 02:42:29;;;;;;;4.97;1.20;;;;;;;;;;5088497;28;20116;-81
2021/10/21 02:44:54;;;;;;;6.57;0.65;;;;;;;;;;5075138;28;20056;-80
2021/10/21 02:47:19;;;;;;;3.20;0.50;;;;;;;;;;5099474;28;20101;-82
2021/10/21 02:49:45;;;;;;;16.38;1.08;;;;;;;;;;5059517;28;20564;-80
2021/10/21 02:52:10;;;;;;;4.70;0.60;;;;;;;;;;5084250;28;20047;-82
2021/10/21 02:54:36;;;;;;;3.92;0.70;;;;;;;;;;5077710;28;20395;-81
2021/10/21 02:57:03;;;;;;;3.53;0.70;;;;;;;;;;5074477;28;20055;-82
2021/10/21 02:59:28;;;;;;;2.40;0.43;;;;;;;;;;5089129;28;20020;-80
2021/10/21 03:01:53;;;;;;;3.33;0.63;;;;;;;;;;5079226;28;20039;-82
2021/10/21 03:04:19;;;;;;;3.47;0.60;;;;;;;;;;5093575;28;20025;-82
2021/10/21 03:06:44;;;;;;;2.55;0.50;;;;;;;;;;5055227;28;20718;-82
2021/10/21 03:09:10;;;;;;;5.28;1.50;;;;;;;;;;5084678;28;20579;-82
2021/10/21 03:11:35;;;;;;;2.45;0.52;;;;;;;;;;5069461;28;20048;-80
2021/10/21 03:14:02;;;;;;;5.65;0.63;;;;;;;;;;5073128;28;20107;-82
2021/10/21 03:16:30;;;;;;;3.75;0.80;;;;;;;;;;5061658;28;20028;-82
2021/10/21 03:18:56;;;;;;;3.67;0.70;;;;;;;;;;5081812;28;20384;-82
2021/10/21 03:21:22;;;;;;;3.05;0.70;;;;;;;;;;5097047;28;20035;-82
2021/10/21 03:23:47;;;;;;;3.63;0.60;;;;;;;;;;5075746;28;20390;-82
2021/10/21 03:26:13;;;;;;;2.88;0.50;;;;;;;;;;5084030;28;20077;-79
2021/10/21 03:28:39;;;;;;;5.95;0.90;;;;;;;;;;5077826;28;20394;-79
2021/10/21 03:31:04;;;;;;;4.05;0.80;;;;;;;;;;5076033;28;20042;-82
2021/10/21 03:33:30;;;;;;;3.08;0.80;;;;;;;;;;5087362;28;20032;-81
2021/10/21 03:35:56;;;;;;;3.67;0.90;;;;;;;;;;5082759;28;20050;-80
2021/10/21 03:38:21;;;;;;;6.03;1.02;;;;;;;;;;5086656;28;20434;-82
2021/10/21 03:40:47;;;;;;;3.80;0.80;;;;;;;;;;5092780;28;20023;-81
2021/10/21 03:43:12;;;;;;;3.90;0.95;;;;;;;;;;5092127;28;20040;-82
2021/10/21 03:45:38;;;;;;;5.13;0.80;;;;;;;;;;5075164;28;20028;-81
2021/10/21 03:48:03;;;;;;;6.07;0.90;;;;;;;;;;5074293;28;20039;-81
2021/10/21 03:50:29;;;;;;;2.35;0.65;;;;;;;;;;5078261;28;20032;-82
2021/10/21 03:52:55;;;;;;;2.67;0.60;;;;;;;;;;5077253;28;20023;-82
2021/10/21 03:55:20;;;;;;;2.95;0.75;;;;;;;;;;5089967;28;20088;-81
2021/10/21 03:57:46;;;;;;;4.60;1.15;;;;;;;;;;5089083;28;20020;-82
2021/10/21 04:00:11;;;;;;;3.08;0.70;;;;;;;;;;5090892;28;20033;-81
2021/10/21 04:02:38;;;;;;;4.03;0.80;;;;;;;;;;5080660;28;20387;-80
2021/10/21 04:05:05;;;;;;;4.28;0.60;;;;;;;;;;5082884;28;20035;-82
2021/10/21 04:07:30;;;;;;;4.13;0.52;;;;;;;;;;5088588;28;20119;-82
2021/10/21 04:09:55;;;;;;;2.40;0.60;;;;;;;;;;5081259;28;20118;-81
2021/10/21 04:12:22;;;;;;;3.20;0.63;;;;;;;;;;5080680;28;20031;-79
2021/10/21 04:14:47;;;;;;;3.83;0.50;;;;;;;;;;5071804;28;20043;-79
2021/10/21 04:17:13;;;;;;;3.67;1.15;;;;;;;;;;5058844;28;20743;-82
2021/10/21 04:19:38;;;;;;;3.08;0.60;;;;;;;;;;5061739;28;20030;-81
2021/10/21 04:22:04;;;;;;;4.93;0.68;;;;;;;;;;5079248;28;20066;-82
2021/10/21 04:24:29;;;;;;;2.72;0.80;;;;;;;;;;5064109;28;20039;-82
2021/10/21 04:26:54;;;;;;;3.13;0.80;;;;;;;;;;5080338;28;20084;-82
2021/10/21 04:29:20;;;;;;;3.95;0.65;;;;;;;;;;5082474;28;20031;-82
2021/10/21 04:31:45;;;;;;;4.28;0.77;;;;;;;;;;5089812;28;20111;-82
2021/10/21 04:34:12;;;;;;;3.65;0.52;;;;;;;;;;5090697;28;20038;-81
2021/10/21 04:36:40;;;;;;;3.08;0.73;;;;;;;;;;5098373;28;20036;-79
2021/10/21 04:39:05;;;;;;;3.78;0.70;;;;;;;;;;5096899;28;20011;-79
2021/10/21 04:41:31;;;;;;;3.00;0.68;;;;;;;;;;5068735;28;20036;-81
2021/10/21 04:43:56;;;;;;;5.75;0.80;;;;;;;;;;5086553;28;20031;-82
2021/10/21 04:46:22;;;;;;;5.75;1.50;;;;;;;;;;5088682;28;20507;-80
2021/10/21 04:48:47;;;;;;;5.03;0.70;;;;;;;;;;5069211;28;20028;-81
2021/10/21 04:51:12;;;;;;;3.80;0.70;;;;;;;;;;5076528;28;20029;-80
2021/10/21 04:53:38;;;;;;;2.92;0.60;;;;;;;;;;5093617;28;20046;-80
2021/10/21 04:56:03;;;;;;;4.60;0.60;;;;;;;;;;5086810;28;20028;-80
2021/10/21 04:58:29;;;;;;;4.50;0.73;;;;;;;;;;5093620;28;20425;-81
2021/10/21 05:00:54;;;;;;;6.68;1.52;;;;;;;;;;5082558;28;20063;-81
2021/10/21 05:03:20;;;;;;;2.53;0.80;;;;;;;;;;5091403;28;20133;-81
2021/10/21 05:05:45;;;;;;;4.38;1.00;;;;;;;;;;5090561;28;20034;-79
2021/10/21 05:08:11;;;;;;;3.47;0.77;;;;;;;;;;5090299;28;20055;-79
2021/10/21 05:10:37;;;;;;;4.10;1.10;;;;;;;;;;5092261;28;20049;-81
2021/10/21 05:13:02;;;;;;;3.53;1.02;;;;;;;;;;5104504;28;20084;-81
2021/10/21 05:15:28;;;;;;;3.10;1.00;;;;;;;;;;5064676;28;20036;-81
2021/10/21 05:17:54;;;;;;;5.00;1.40;;;;;;;;;;5082064;28;20020;-80
2021/10/21 05:20:20;;;;;;;3.50;1.40;;;;;;;;;;5091640;28;20039;-81
2021/10/21 05:22:46;;;;;;;4.28;1.13;;;;;;;;;;5086340;28;20020;-82
2021/10/21 05:25:11;;;;;;;4.07;0.98;;;;;;;;;;5076267;28;20507;-80
2021/10/21 05:27:38;;;;;;;4.07;0.82;;;;;;;;;;5082621;28;20139;-82
2021/10/21 05:30:04;;;;;;;4.13;0.52;;;;;;;;;;5073265;28;20028;-81
2021/10/21 05:32:29;;;;;;;1.90;0.40;;;;;;;;;;5077924;28;20032;-82
2021/10/21 05:34:55;;;;;;;0.85;0.30;;;;;;;;;;5074585;28;20047;-81
2021/10/21 05:37:20;;;;;;;2.30;0.30;;;;;;;;;;5065622;28;20456;-81
2021/10/21 05:39:46;;;;;;;4.53;0.30;;;;;;;;;;5067370;28;20086;-82
2021/10/21 05:42:12;;;;;;;2.13;0.73;;;;;;;;;;5082711;28;20036;-80
2021/10/21 05:44:38;;;;;;;1.52;0.20;;;;;;;;;;5089404;28;20083;-81
2021/10/21 05:47:04;;;;;;;0.98;0.40;;;;;;;;;;5089283;28;20502;-79
2021/10/21 05:49:29;;;;;;;5.32;0.50;;;;;;;;;;5066834;28;20033;-82
2021/10/21 05:51:55;;;;;;;1.40;0.30;;;;;;;;;;5060349;28;20596;-81
2021/10/21 05:54:20;;;;;;;1.55;0.47;;;;;;;;;;5101132;28;20031;-80
2021/10/21 05:56:46;;;;;;;4.07;0.50;;;;;;;;;;5074465;28;20027;-82
2021/10/21 05:59:11;;;;;;;3.00;0.40;;;;;;;;;;5072601;28;20032;-80
2021/10/21 06:01:37;;;;;;;4.45;0.52;;;;;;;;;;5078993;28;20031;-81
2021/10/21 06:04:02;;;;;;;6.53;0.70;;;;;;;;;;5078696;28;20031;-80
2021/10/21 06:06:32;;;;;;;6.50;1.10;;;;;;;;;;5080493;28;20055;-80
2021/10/21 06:08:57;;;;;;;3.85;0.40;;;;;;;;;;5073138;28;20076;-82
2021/10/21 06:11:23;;;;;;;7.18;0.80;;;;;;;;;;5104842;28;20426;-82
2021/10/21 06:13:48;;;;;;;4.72;0.52;;;;;;;;;;5086710;28;20115;-80
2021/10/21 06:16:15;;;;;;;4.78;0.70;;;;;;;;;;5068251;28;20063;-80
2021/10/21 06:18:40;;;;;;;7.97;0.95;;;;;;;;;;5086191;28;20024;-81
2021/10/21 06:21:06;;;;;;;5.88;0.65;;;;;;;;;;5072546;28;20449;-80
2021/10/21 06:23:33;;;;;;;8.65;1.00;;;;;;;;;;5074219;28;20529;-81
2021/10/21 06:25:59;;;;;;;8.82;0.80;;;;;;;;;;5094355;28;20407;-81
2021/10/21 06:28:25;;;;;;;5.18;1.25;;;;;;;;;;5085447;28;20028;-79
2021/10/21 06:30:50;;;;;;;7.38;0.82;;;;;;;;;;5077413;28;20036;-81
2021/10/21 06:33:16;;;;;;;10.02;1.02;;;;;;;;;;5083256;28;20032;-82
2021/10/21 06:35:45;;;;;;;8.95;1.50;;;;;;;;;;5074517;28;20035;-82
2021/10/21 06:38:13;;;;;;;6.53;1.05;;;;;;;;;;5080670;28;20040;-82
2021/10/21 06:40:39;;;;;;;6.53;1.30;;;;;;;;;;5093154;28;20098;-82
2021/10/21 06:43:04;;;;;;;10.57;1.25;;;;;;;;;;5087101;28;20182;-83
2021/10/21 06:45:30;;;;;;;10.52;1.23;;;;;;;;;;5072011;28;20031;-82
2021/10/21 06:47:55;;;;;;;8.27;1.73;;;;;;;;;;5066371;28;20096;-82
2021/10/21 06:50:21;;;;;;;6.00;0.90;;;;;;;;;;5059183;28;20031;-81
2021/10/21 06:52:48;;;;;;;6.50;1.00;;;;;;;;;;5080401;28;20023;-82
2021/10/21 06:55:14;;;;;;;12.20;1.10;;;;;;;;;;5102441;28;20482;-80
2021/10/21 06:57:50;;;;;;;9.75;1.33;;;;;;;;;;5080913;28;20028;-80
2021/10/21 07:00:16;;;;;;;9.63;1.30;;;;;;;;;;5090027;28;20024;-82
2021/10/21 07:02:42;;;;;;;11.75;1.77;;;;;;;;;;5099910;28;20038;-81
2021/10/21 07:05:08;;;;;;;8.13;1.10;;;;;;;;;;5096339;28;20127;-80
2021/10/21 07:07:34;;;;;;;10.73;1.58;;;;;;;;;;5099775;28;20509;-80
2021/10/21 07:10:00;;;;;;;7.30;1.02;;;;;;;;;;5101888;28;20131;-81
2021/10/21 07:12:26;;;;;;;9.52;1.40;;;;;;;;;;5083005;28;20032;-81
2021/10/21 07:14:51;;;;;;;20.08;2.70;;;;;;;;;;5099037;28;20043;-80
2021/10/21 07:17:17;;;;;;;5.63;1.55;;;;;;;;;;5076502;28;20031;-82
2021/10/21 07:19:45;;;;;;;6.10;0.90;;;;;;;;;;5092969;28;20047;-80
2021/10/21 07:22:11;;;;;;;6.80;1.20;;;;;;;;;;5084063;28;20042;-80
2021/10/21 07:24:36;;;;;;;5.63;1.10;;;;;;;;;;5101216;28;20033;-80
2021/10/21 07:27:02;;;;;;;9.75;2.05;;;;;;;;;;5084514;28;20366;-83
2021/10/21 07:29:27;;;;;;;9.43;1.90;;;;;;;;;;5082800;28;20103;-81
2021/10/21 07:31:53;;;;;;;8.57;1.40;;;;;;;;;;5071635;28;20051;-80
2021/10/21 07:34:18;;;;;;;8.88;1.20;;;;;;;;;;5079839;28;20035;-82
2021/10/21 07:36:44;;;;;;;12.07;1.95;;;;;;;;;;5082591;28;20056;-82
2021/10/21 07:39:09;;;;;;;9.20;1.70;;;;;;;;;;5099001;28;20486;-80
2021/10/21 07:41:35;;;;;;;6.47;1.50;;;;;;;;;;5086544;28;20039;-82
2021/10/21 07:44:01;;;;;;;7.30;1.20;;;;;;;;;;5105416;28;20390;-82
2021/10/21 07:46:26;;;;;;;5.45;1.23;;;;;;;;;;5065780;28;20067;-81
2021/10/21 07:48:51;;;;;;;9.80;1.65;;;;;;;;;;5087416;28;20031;-80
2021/10/21 07:51:18;;;;;;;11.05;1.35;;;;;;;;;;5081162;28;20513;-82
2021/10/21 07:53:43;;;;;;;10.60;1.70;;;;;;;;;;5088582;28;20036;-82
2021/10/21 07:56:08;;;;;;;10.25;1.50;;;;;;;;;;5078922;28;20039;-80
2021/10/21 07:58:34;;;;;;;9.18;1.60;;;;;;;;;;5095227;28;20059;-80
2021/10/21 08:00:59;;;;;;;8.10;1.45;;;;;;;;;;5096013;28;20031;-82
2021/10/21 08:03:25;;;;;;;10.02;1.90;;;;;;;;;;5103928;28;20023;-82
2021/10/21 08:05:50;;;;;;;10.43;1.50;;;;;;;;;;5075664;28;20408;-82
2021/10/21 08:08:16;;;;;;;6.30;1.30;;;;;;;;;;5105911;28;20079;-79
2021/10/21 08:10:41;;;;;;;9.82;1.30;;;;;;;;;;5091479;28;20139;-80
2021/10/21 08:13:10;;;;;;;8.82;1.50;;;;;;;;;;5082543;28;20036;-82
2021/10/21 08:15:35;;;;;;;7.85;1.33;;;;;;;;;;5091965;28;20032;-80
2021/10/21 08:18:01;;;;;;;5.80;1.20;;;;;;;;;;5087214;28;20093;-81
2021/10/21 08:20:27;;;;;;;8.05;1.38;;;;;;;;;;5091561;28;20033;-82
2021/10/21 08:22:53;;;;;;;7.68;1.40;;;;;;;;;;5065302;28;20548;-80
2021/10/21 08:25:19;;;;;;;9.00;1.50;;;;;;;;;;5091162;28;20055;-81
2021/10/21 08:27:46;;;;;;;9.95;1.48;;;;;;;;;;5081251;28;20032;-81
2021/10/21 08:30:12;;;;;;;7.00;1.70;;;;;;;;;;5090296;28;21280;-82
2021/10/21 08:32:39;;;;;;;11.43;1.77;;;;;;;;;;5099745;28;20095;-80
2021/10/21 08:35:06;;;;;;;9.32;1.80;;;;;;;;;;5079424;28;20032;-80
2021/10/21 08:37:32;;;;;;;9.43;1.60;;;;;;;;;;5104898;28;20031;-80
2021/10/21 08:40:00;;;;;;;8.77;1.30;;;;;;;;;;5094873;28;20476;-80
2021/10/21 08:42:25;;;;;;;8.95;1.40;;;;;;;;;;5094937;28;20037;-80
2021/10/21 08:44:51;;;;;;;8.73;1.67;;;;;;;;;;5075279;28;20410;-81
2021/10/21 08:47:18;;;;;;;4.82;1.27;;;;;;;;;;5075473;28;20476;-82
2021/10/21 08:49:44;;;;;;;7.28;1.40;;;;;;;;;;5095836;28;20059;-82
2021/10/21 08:52:11;;;;;;;9.13;1.45;;;;;;;;;;5101260;28;20036;-80
2021/10/21 08:54:36;;;;;;;5.85;1.05;;;;;;;;;;5094586;28;20145;-82
2021/10/21 08:57:02;;;;;;;6.32;1.00;;;;;;;;;;5069591;28;20082;-82
2021/10/21 08:59:28;;;;;;;6.57;1.17;;;;;;;;;;5097713;28;20023;-81
2021/10/21 09:02:08;;;;;;;6.85;1.42;;;;;;;;;;5091283;28;20024;-81
2021/10/21 09:09:34;;;;;;;4.45;1.17;;;;;;;;;;5096534;28;20050;-80
2021/10/21 09:12:04;;;;;;;7.85;1.40;;;;;;;;;;5080607;28;20456;-79
2021/10/21 09:14:48;;;;;;;8.48;1.40;;;;;;;;;;5092588;28;20046;-82
2021/10/21 09:17:14;;;;;;;;;;;;;;;;;;5097725;28;20037;-81
2021/10/21 09:19:41;;;;;;;7.85;1.38;;;;;;;;;;5081911;28;19922;-82
2021/10/21 09:22:23;;;;;;;7.72;1.05;;;;;;;;;;5092048;28;20024;-79
2021/10/21 09:24:50;;;;;;;5.40;1.38;;;;;;;;;;5100520;28;20023;-81
2021/10/21 09:27:20;;;;;;;9.30;1.63;;;;;;;;;;5076513;28;20119;-81
2021/10/21 09:29:49;;;;;;;7.18;1.10;;;;;;;;;;5071028;28;20031;-81
2021/10/21 09:32:29;;;;;;;6.45;1.00;;;;;;;;;;5092926;28;20526;-80
2021/10/21 09:35:02;;;;;;;4.45;1.02;;;;;;;;;;5093008;28;20024;-82
2021/10/21 09:37:43;;;;;;;6.25;1.17;;;;;;;;;;5095292;28;20016;-80
2021/10/21 09:40:16;;;;;;;4.55;0.90;;;;;;;;;;5092225;28;20076;-82
2021/10/21 09:42:44;;;;;;;5.40;0.98;;;;;;;;;;5097823;28;20103;-82
2021/10/21 09:45:18;;;;;;;3.58;0.90;;;;;;;;;;5096482;28;20048;-80
2021/10/21 09:48:04;;;;;;;5.75;0.95;;;;;;;;;;5091510;28;20031;-80
2021/10/21 09:50:39;;;;;;;4.43;1.00;;;;;;;;;;5081345;28;20027;-82
2021/10/21 09:53:31;;;;;;;4.97;1.15;;;;;;;;;;5098964;28;20027;-82
2021/10/21 09:56:00;;;;;;;2.50;0.70;;;;;;;;;;5096717;28;20024;-82
2021/10/21 09:58:39;;;;;;;3.90;0.98;;;;;;;;;;5100872;28;20058;-82
2021/10/21 10:01:15;;;;;;;3.08;0.95;;;;;;;;;;5097521;28;20028;-80
2021/10/21 10:03:50;;;;;;;4.43;1.10;;;;;;;;;;5077691;28;20499;-80
2021/10/21 10:06:17;;;;;;;4.80;1.20;;;;;;;;;;5093279;28;20034;-81
2021/10/21 10:08:47;;;;;;;3.95;0.90;;;;;;;;;;5099220;28;20032;-81
2021/10/21 10:11:19;;;;;;;6.45;1.15;;;;;;;;;;5090559;28;20468;-82
2021/10/21 10:13:47;;;;;;;4.33;1.20;;;;;;;;;;5097363;28;20060;-82
2021/10/21 10:16:16;;;;;;;7.72;1.42;;;;;;;;;;5072203;28;20040;-82
2021/10/21 10:18:43;;;;;;;4.85;1.30;;;;;;;;;;5090505;28;20020;-81
2021/10/21 10:21:21;;;;;;;7.35;1.35;;;;;;;;;;5094524;28;20076;-82
2021/10/21 10:23:56;;;;;;;6.13;1.40;;;;;;;;;;5090218;28;20527;-81
2021/10/21 10:26:44;;;;;;;7.20;1.30;;;;;;;;;;5093670;28;20081;-82
2021/10/21 10:29:13;;;;;;;5.90;1.25;;;;;;;;;;5088136;28;20020;-82
2021/10/21 10:31:44;;;;;;;7.57;1.50;;;;;;;;;;5083934;28;20032;-82
2021/10/21 10:34:32;;;;;;;6.22;1.17;;;;;;;;;;5095750;28;20023;-81
2021/10/21 10:37:17;;;;;;;8.10;1.10;;;;;;;;;;5103055;28;20368;-82
2021/10/21 10:39:54;;;;;;;4.93;1.30;;;;;;;;;;5096654;28;20024;-80
2021/10/21 10:42:28;;;;;;;5.65;1.17;;;;;;;;;;5102126;28;20635;-82
2021/10/21 10:44:54;;;;;;;7.70;1.05;;;;;;;;;;5095401;28;20068;-81
2021/10/21 10:47:40;;;;;;;7.35;1.05;;;;;;;;;;5092083;28;20065;-82
2021/10/21 10:50:07;;;;;;;6.53;1.27;;;;;;;;;;5095037;28;20044;-80
2021/10/21 10:52:49;;;;;;;5.00;1.27;;;;;;;;;;5095497;28;20206;-81
2021/10/21 10:55:36;;;;;;;5.28;1.20;;;;;;;;;;5094896;28;20568;-81
2021/10/21 10:58:03;;;;;;;7.45;1.20;;;;;;;;;;5073973;28;20042;-80
2021/10/21 11:00:52;;;;;;;3.28;0.90;;;;;;;;;;5095556;28;20043;-81
2021/10/21 11:03:35;;;;;;;7.55;1.40;;;;;;;;;;5096750;28;20020;-82
2021/10/21 11:06:08;;;;;;;4.68;1.00;;;;;;;;;;5099765;28;20542;-80
2021/10/21 11:08:59;;;;;;;4.00;1.20;;;;;;;;;;5103292;28;20048;-80
2021/10/21 11:12:00;;;;;;;5.75;1.30;;;;;;;;;;5098738;28;20057;-80
2021/10/21 11:14:43;;;;;;;6.90;1.30;;;;;;;;;;5090065;28;20123;-79
2021/10/21 11:17:09;;;;;;;5.67;1.47;;;;;;;;;;5098587;28;20081;-80
2021/10/21 11:19:45;;;;;;;6.88;1.50;;;;;;;;;;5077808;28;20264;-82
2021/10/21 11:22:19;;;;;;;5.90;1.50;;;;;;;;;;5103392;28;20051;-80
2021/10/21 11:24:48;;;;;;;7.93;1.60;;;;;;;;;;5099706;28;20031;-81
2021/10/21 11:27:26;;;;;;;6.80;1.23;;;;;;;;;;5097648;28;20024;-79
2021/10/21 11:29:53;;;;;;;5.97;1.23;;;;;;;;;;5101667;28;20032;-82
2021/10/21 11:32:18;;;;;;;6.95;1.52;;;;;;;;;;5085764;28;20027;-82
2021/10/21 11:34:48;;;;;;;6.28;1.50;;;;;;;;;;5101335;28;20028;-81
2021/10/21 11:37:14;;;;;;;6.07;1.63;;;;;;;;;;5089845;28;20034;-82
2021/10/21 11:39:40;;;;;;;8.82;1.30;;;;;;;;;;5099958;28;20474;-81
2021/10/21 11:42:07;;;;;;;4.93;1.05;;;;;;;;;;5097748;28;20028;-80
2021/10/21 11:44:34;;;;;;;1.50;0.20;;;;;;;;;;5095127;28;20035;-82
2021/10/21 11:47:06;;;;;;;2.92;0.20;;;;;;;;;;5097718;28;20570;-81
2021/10/21 11:49:33;;;;;;;1.90;0.32;;;;;;;;;;5100570;28;20623;-82
2021/10/21 11:52:02;;;;;;;2.05;0.45;;;;;;;;;;5098433;28;20031;-80
2021/10/21 11:54:27;;;;;;;3.72;0.65;;;;;;;;;;5097253;28;20407;-81
2021/10/21 11:56:54;;;;;;;1.08;0.28;;;;;;;;;;5104015;28;20024;-82
2021/10/21 11:59:36;;;;;;;4.35;0.60;;;;;;;;;;5099683;28;20394;-82
2021/10/21 12:02:18;;;;;;;3.70;0.40;;;;;;;;;;5098501;28;20035;-82
2021/10/21 12:04:46;;;;;;;4.68;0.52;;;;;;;;;;5100422;28;20071;-82
2021/10/21 12:07:13;;;;;;;2.65;0.40;;;;;;;;;;5101889;28;20480;-82
2021/10/21 12:09:39;;;;;;;4.63;0.45;;;;;;;;;;5099173;28;20134;-83
2021/10/21 12:12:07;;;;;;;2.40;0.40;;;;;;;;;;5092931;28;20483;-80
2021/10/21 12:14:37;;;;;;;4.25;0.60;;;;;;;;;;5094924;28;20024;-83
2021/10/21 12:17:04;;;;;;;4.32;0.50;;;;;;;;;;5093841;28;20037;-80
2021/10/21 12:19:30;;;;;;;5.97;0.55;;;;;;;;;;5094775;28;20020;-80
2021/10/21 12:22:18;;;;;;;4.30;0.63;;;;;;;;;;5086698;28;20023;-80
2021/10/21 12:24:47;;;;;;;4.03;0.40;;;;;;;;;;5096290;28;20118;-82
2021/10/21 12:27:20;;;;;;;3.60;0.60;;;;;;;;;;5075625;28;20047;-81
2021/10/21 12:29:46;;;;;;;6.60;0.60;;;;;;;;;;5103412;28;20024;-82
2021/10/21 12:32:18;;;;;;;4.38;0.50;;;;;;;;;;5097061;28;20112;-81
2021/10/21 12:34:47;;;;;;;3.55;0.57;;;;;;;;;;5102414;28;20023;-80
2021/10/21 12:37:18;;;;;;;3.85;0.45;;;;;;;;;;5090720;28;20041;-80
2021/10/21 12:39:44;;;;;;;3.47;0.50;;;;;;;;;;5089214;28;20019;-83
2021/10/21 12:42:21;;;;;;;3.25;0.50;;;;;;;;;;5080797;28;20110;-80
2021/10/21 12:44:55;;;;;;;2.92;0.57;;;;;;;;;;5089360;28;20062;-82
2021/10/21 12:47:28;;;;;;;2.00;0.38;;;;;;;;;;5093537;28;20031;-83
2021/10/21 12:49:58;;;;;;;5.43;0.65;;;;;;;;;;5089424;28;20047;-80
2021/10/21 12:52:25;;;;;;;1.77;0.40;;;;;;;;;;5101275;28;20110;-80
2021/10/21 12:55:21;;;;;;;4.07;0.70;;;;;;;;;;5070977;28;20021;-81
2021/10/21 12:57:56;;;;;;;3.33;0.50;;;;;;;;;;5095075;28;20456;-82
2021/10/21 13:00:29;;;;;;;4.25;0.50;;;;;;;;;;5093311;28;20059;-82
2021/10/21 13:03:16;;;;;;;;;;;;;;;;;;5089747;28;20023;-80
2021/10/21 13:05:43;;;;;;;9.43;0.75;;;;;;;;;;5101252;27;19912;-80
2021/10/21 13:08:09;;;;;;;4.13;0.80;;;;;;;;;;5097865;28;20044;-82
2021/10/21 13:10:41;;;;;;;5.57;0.68;;;;;;;;;;5099926;28;20030;-79
2021/10/21 13:13:06;;;;;;;5.10;0.70;;;;;;;;;;5101758;28;20088;-82
2021/10/21 13:15:31;;;;;;;4.43;0.50;;;;;;;;;;5097250;28;20114;-80
2021/10/21 13:17:57;;;;;;;3.95;0.40;;;;;;;;;;5090441;28;20031;-81
2021/10/21 13:20:24;;;;;;;4.95;0.52;;;;;;;;;;5080006;28;20038;-82
2021/10/21 13:22:49;;;;;;;5.72;0.50;;;;;;;;;;5088774;28;20134;-80
2021/10/21 13:25:15;;;;;;;6.68;1.10;;;;;;;;;;5094110;28;20119;-80
2021/10/21 13:27:44;;;;;;;2.90;0.45;;;;;;;;;;5092517;28;20382;-82
2021/10/21 13:30:10;;;;;;;5.30;0.73;;;;;;;;;;5085618;28;20032;-80
2021/10/21 13:32:37;;;;;;;3.88;0.70;;;;;;;;;;5090441;28;20032;-81
2021/10/21 13:35:03;;;;;;;4.55;0.57;;;;;;;;;;5074685;28;20059;-80
2021/10/21 13:37:29;;;;;;;4.60;0.70;;;;;;;;;;5098193;28;20046;-81
2021/10/21 13:39:54;;;;;;;4.38;0.68;;;;;;;;;;5083002;28;20020;-79
2021/10/21 13:42:20;;;;;;;4.85;0.65;;;;;;;;;;5092562;28;20028;-82
2021/10/21 13:44:46;;;;;;;5.93;1.05;;;;;;;;;;5070129;28;20058;-82
2021/10/21 13:47:12;;;;;;;4.88;0.60;;;;;;;;;;5080583;28;20036;-81
2021/10/21 13:49:38;;;;;;;5.65;0.73;;;;;;;;;;5077706;28;20032;-82
2021/10/21 13:52:04;;;;;;;5.72;1.50;;;;;;;;;;5091647;28;20036;-80
2021/10/21 13:54:30;;;;;;;5.72;1.02;;;;;;;;;;5079170;28;20028;-80
2021/10/21 13:56:58;;;;;;;5.32;0.95;;;;;;;;;;5082350;28;20030;-81
2021/10/21 13:59:24;;;;;;;3.30;0.77;;;;;;;;;;5088389;28;20019;-82
2021/10/21 14:01:49;;;;;;;4.35;0.60;;;;;;;;;;5065464;28;20028;-80
2021/10/21 14:04:15;;;;;;;5.25;0.90;;;;;;;;;;5094170;28;20247;-82
2021/10/21 14:06:41;;;;;;;4.95;1.27;;;;;;;;;;5076828;28;20056;-79
2021/10/21 14:09:06;;;;;;;2.38;0.50;;;;;;;;;;5092465;28;20407;-82
2021/10/21 14:11:32;;;;;;;8.88;1.13;;;;;;;;;;5063730;28;20126;-81
2021/10/21 14:13:59;;;;;;;7.47;1.00;;;;;;;;;;5099458;28;20089;-79
2021/10/21 14:16:28;;;;;;;4.90;0.98;;;;;;;;;;5087950;28;20047;-82
2021/10/21 14:18:54;;;;;;;7.47;0.95;;;;;;;;;;5078831;28;20047;-79
2021/10/21 14:21:19;;;;;;;5.78;0.88;;;;;;;;;;5097564;28;20037;-82
2021/10/21 14:23:46;;;;;;;6.03;1.10;;;;;;;;;;5073739;28;20726;-82
2021/10/21 14:26:12;;;;;;;5.03;1.10;;;;;;;;;;5093317;28;20036;-81
2021/10/21 14:28:38;;;;;;;5.55;1.08;;;;;;;;;;5073304;28;20059;-79
2021/10/21 14:31:04;;;;;;;8.50;1.80;;;;;;;;;;5094229;28;20054;-82
2021/10/21 14:33:29;;;;;;;6.93;1.50;;;;;;;;;;5086639;28;20059;-79
2021/10/21 14:35:55;;;;;;;10.85;1.13;;;;;;;;;;5085957;28;20036;-82
2021/10/21 14:38:20;;;;;;;7.13;1.13;;;;;;;;;;5091409;28;20097;-82
2021/10/21 14:40:46;;;;;;;9.52;1.10;;;;;;;;;;5073819;28;20642;-80
2021/10/21 14:43:13;;;;;;;10.80;2.08;;;;;;;;;;5093297;28;20119;-82
2021/10/21 14:45:39;;;;;;;9.80;1.10;;;;;;;;;;5070281;28;20039;-80
2021/10/21 14:48:06;;;;;;;5.05;0.85;;;;;;;;;;5090082;28;20039;-79
2021/10/21 14:50:33;;;;;;;6.90;1.00;;;;;;;;;;5072985;28;20032;-79
2021/10/21 14:52:58;;;;;;;6.03;1.10;;;;;;;;;;5092372;28;20465;-80